Highlands Peak, California Weather observations

Data are for observation ending at time listed.
 Day   Time    Ave.   Ave.  Ave.  Vector   Max.   Stn.    Total    Solar   Ave.  
  of    of     Air    Rel.  Wind   Wind    Wind   Baro.  Precip.   Rad.    Soil  
Year   Day     Temp.  Hum.  Speed  Dir.    Gust   Pres.                    Temp. 
2017   (PST)    F      %     mph   deg.    mph     mb.     in.     W/m2     F   
------------------------------------------------------------------------------
  16    6:50   44.5    62    0.7   246      2.7   930.6    0.00       0    42.9
  16    7:00   44.1    60    2.3   268      2.9   930.6    0.00       0    42.9
  16    7:10   43.6    60    0.5   259      1.8   930.5    0.00       1    42.8
  16    7:20   43.9    60    2.0    98      2.9   930.5    0.00       4    42.7
  16    7:30   44.2    63    2.6   176      3.1   930.6    0.00       8    42.7
  16    7:40   44.3    60    1.9   260      2.8   930.9    0.00      11    42.6
  16    7:50   43.8    60    1.6   308      2.0   931.1    0.00      14    42.5
  16    8:00   44.6    61    0.4   296      2.0   931.1    0.00     102    42.5
  16    8:10   45.5    54    0.6   269      2.2   931.1    0.00     151    42.3
  16    8:20   45.7    52    0.5   286      1.5   931.2    0.00     182    42.3
  16    8:30   46.4    54    0.9    69      1.7   931.3    0.00     215    42.2
  16    8:40   47.4    54    0.6   154      1.9   931.3    0.00     246    42.1
  16    8:50   47.2    54    1.7   193      2.6   931.3    0.00     278    42.1
  16    9:00   45.6    61    2.1   203      4.2   931.5    0.00     308    42.1
  16    9:10   48.0    60    2.7   161      3.9   931.6    0.00     338    42.1
  16    9:20   47.6    60    2.2   190      4.5   931.7    0.00     366    42.1
  16    9:30   47.1    61    1.4   274      2.9   931.8    0.00     393    42.1
  16    9:40   46.5    63    2.2   245      3.7   931.8    0.00     419    42.1
  16    9:50   46.4    65    1.3   239      2.5   931.9    0.00     444    42.2
  16   10:00   46.5    66    2.3   241      3.3   932.0    0.00     467    42.2
  16   10:10   46.2    65    1.5   258      2.8   932.1    0.00     489    42.4
  16   10:20   46.7    67    1.5   247      2.9   932.2    0.00     509    42.5
  16   10:30   47.4    68    1.8   244      3.2   932.4    0.00     528    42.6
  16   10:40   47.2    71    1.8   254      3.5   932.5    0.00     543    42.7
  16   10:50   48.1    71    1.8   243      4.0   932.4    0.00     560    42.9
  16   11:00   48.5    71    1.8   233      3.4   932.4    0.00     574    43.1
  16   11:10   49.4    69    2.0   241      3.4   932.4    0.00     587    43.3
  16   11:20   49.3    70    1.9   269      3.1   932.4    0.00     596    43.5
  16   11:30   49.4    71    2.8   267      4.6   932.3    0.00     605    43.7
  16   11:40   48.8    74    2.6   264      4.2   932.2    0.00     611    43.9
  16   11:50   48.4    77    2.5   238      4.5   932.0    0.00     615    44.2
  16   12:00   48.6    78    3.2   233      5.6   931.9    0.00     619    44.4
  16   12:10   48.9    77    3.0   261      5.6   931.9    0.00     619    44.7
  16   12:20   49.1    76    3.0   269      5.0   931.8    0.00     619    44.9
  16   12:30   48.4    78    3.9   270      6.4   931.7    0.00     615    45.2
  16   12:40   47.9    79    3.9   265      5.8   931.6    0.00     610    45.4
  16   12:50   47.0    81    3.6   267      6.5   931.5    0.00     560    45.7
  16   13:00   47.8    80    1.7   254      4.6   931.3    0.00     595    46.0
  16   13:10   48.7    79    2.4   250      4.6   931.2    0.00     587    46.2
  16   13:20   49.2    78    2.4   257      5.0   931.0    0.00     579    46.5
  16   13:30   49.5    78    3.1   264      5.2   930.9    0.00     566    46.8
  16   13:40   49.9    78    3.9   261      7.0   930.8    0.00     552    47.1
  16   13:50   49.7    78    3.8   265      5.7   930.9    0.00     534    47.4
  16   14:00   49.0    81    3.0   272      5.1   930.9    0.00     517    47.7
  16   14:10   49.4    80    3.4   262      6.1   930.9    0.00     499    48.0
  16   14:20   49.4    80    3.4   255      6.4   931.0    0.00     478    48.4
  16   14:30   50.3    78    2.4   270      4.4   930.9    0.00     456    48.7
  16   14:40   50.9    76    3.0   262      5.9   930.9    0.00     433    48.9
  16   14:50   50.4    78    3.1   247      6.5   930.9    0.00     408    49.2
  16   15:00   51.1    74    2.2   210      4.5   931.0    0.00     382    49.4
  16   15:10   51.4    75    3.6   262      6.2   931.0    0.00     354    49.6
  16   15:20   50.0    78    1.9   282      5.0   931.0    0.00     327    49.9
  16   15:30   51.9    71    0.7   292      2.1   931.0    0.00     299    50.1
  16   15:40   51.9    74    2.5   268      5.2   931.0    0.00     262    50.3
  16   15:50   51.6    71    0.9   282      2.9   931.0    0.00     242    50.4
  16   16:00   52.7    70    1.6   135      4.2   931.0    0.00     214    50.6
  16   16:10   51.8    74    1.7   266      4.2   931.1    0.00     185    50.8
  16   16:20   51.0    77    2.9   263      5.0   931.1    0.00     156    50.9
  16   16:30   49.3    79    2.8   272      4.4   931.1    0.00     129    51.0
  16   16:40   48.5    75    3.1   284      5.8   931.2    0.00     103    51.1
  16   16:50   48.1    76    2.7    29      4.8   931.1    0.00      78    51.2
  16   17:00   47.7    82    4.6    58      5.8   931.0    0.00      51    51.2
  16   17:10   48.6    76    3.3    34      5.9   930.9    0.00      34    51.2
  16   17:20   49.0    71    1.2   165      3.7   930.9    0.00       9    51.2
  16   17:30   48.5    65    3.0    63      5.1   930.7    0.00       2    51.1
  16   17:40   48.9    69    3.0     9      5.1   930.8    0.00       1    51.1
  16   17:50   48.2    74    4.2    23      5.7   930.9    0.00       0    51.0
  16   18:00   47.3    77    6.0    36      6.6   930.8    0.00       0    50.9
  16   18:10   47.7    74    4.9    41      6.5   930.9    0.00       0    50.8
  16   18:20   49.0    65    4.7    46      6.2   930.9    0.00       0    50.7
  16   18:30   50.1    58    2.8    37      4.1   930.9    0.00       0    50.6
  16   18:40   50.4    55    1.6    20      4.0   931.0    0.00       0    50.5
  16   18:50   49.7    56    3.1    41      5.3   931.0    0.00       0    50.4
  16   19:00   50.1    51    3.0    39      5.0   931.1    0.00       0    50.3
  16   19:10   51.0    50    2.3    86      4.2   931.1    0.00       0    50.2
  16   19:20   49.8    63    3.6   139      4.8   931.1    0.00       0    50.1
  16   19:30   49.3    62    4.1   174      4.7   931.2    0.00       0    50.0
  16   19:40   49.4    57    3.0   171      3.6   931.2    0.00       0    49.9
  16   19:50   50.3    47    2.3   180      2.9   931.3    0.00       0    49.7
  16   20:00   51.1    36    0.8   176      1.8   931.2    0.00       0    49.6
  16   20:10   50.8    42    2.1    54      5.3   931.2    0.00       0    49.5
  16   20:20   49.6    46    5.0    55      6.1   931.2    0.00       0    49.4
  16   20:30   49.3    46    3.7    33      5.6   931.4    0.00       0    49.2
  16   20:40   50.8    45    2.1   340      3.3   931.5    0.00       0    49.1
  16   20:50   49.9    42    3.8    35      5.1   931.6    0.00       0    49.0
  16   21:00   48.9    43    3.5    27      5.6   931.7    0.00       0    48.9
  16   21:10   48.9    42    4.3    26      6.1   931.8    0.00       0    48.8
  16   21:20   49.0    41    3.7    44      5.0   931.8    0.00       0    48.7
  16   21:30   50.2    34    2.7    49      4.3   931.7    0.00       0    48.6
  16   21:40   50.6    36    1.4   193      2.8   931.7    0.00       0    48.5
  16   21:50   50.1    49    1.0   264      2.0   931.7    0.00       0    48.3
  16   22:00   49.7    50    0.8   252      1.8   931.6    0.00       0    48.2
  16   22:10   49.6    53    0.2   287      1.2   931.5    0.00       0    48.1
  16   22:20   49.8    53    0.0     0      0.0   931.5    0.00       0    48.0
  16   22:30   49.5    53    1.0    61      3.4   931.4    0.00       0    47.9
  16   22:40   49.5    47    3.8   105      5.0   931.3    0.00       0    47.8
  16   22:50   51.0    32    4.0    94      5.3   931.2    0.00       0    47.7
  16   23:00   52.9    23    3.4    95      4.8   931.2    0.00       0    47.6
  16   23:10   51.0    41    3.4   311      6.1   931.3    0.00       0    47.4
  16   23:20   50.3    26    3.4    45      6.7   931.3    0.00       0    47.4
  16   23:30   50.0    38    1.0   288      2.2   931.4    0.00       0    47.2
  16   23:40   49.6    45    1.5   230      2.4   931.3    0.00       0    47.2
  16   23:50   49.3    48    2.3   209      3.1   931.3    0.00       0    47.1
  17    0:00   49.1    47    1.5   251      2.3   931.3    0.00       0    47.0
  17    0:10   48.8    46    1.5   317      2.7   931.3    0.00       0    46.9
  17    0:20   48.5    34    4.2    54      6.1   931.3    0.00       0    46.8
  17    0:30   49.5    30    2.3    99      4.2   931.3    0.00       0    46.7
  17    0:40   49.3    27    4.4    79      6.2   931.2    0.00       0    46.6
  17    0:50   49.5    26    4.9    93      6.9   931.2    0.00       0    46.5
  17    1:00   50.4    27    5.1   151      7.3   931.1    0.00       0    46.4
  17    1:10   50.1    30    5.0   175      6.8   931.1    0.00       0    46.3
  17    1:20   49.8    32    4.1   182      6.4   931.1    0.00       0    46.2
  17    1:30   49.4    33    0.9   306      2.0   931.2    0.00       0    46.2
  17    1:40   49.4    28    1.8    72      3.1   931.3    0.00       0    46.1
  17    1:50   49.1    35    1.3   269      2.8   931.4    0.00       0    46.0
  17    2:00   47.8    43    2.6   303      3.1   931.6    0.00       0    45.9
  17    2:10   47.4    42    2.1     3      4.5   931.7    0.00       0    45.8
  17    2:20   46.9    32    5.1    60      6.0   931.6    0.00       0    45.8
  17    2:30   47.5    32    4.8    79      7.1   931.5    0.00       0    45.7
  17    2:40   48.9    32    6.1   117      7.7   931.4    0.00       0    45.6
  17    2:50   49.4    32    5.5   158      7.0   931.4    0.00       0    45.5
  17    3:00   48.3    37    3.8   149      5.0   931.3    0.00       0    45.4
  17    3:10   48.4    37    4.3   131      5.1   931.2    0.00       0    45.3
  17    3:20   49.0    34    5.2   122      6.6   931.0    0.00       0    45.2
  17    3:30   48.9    33    6.5   117      7.8   930.8    0.00       0    45.1
  17    3:40   49.0    33    6.6   136      8.6   930.7    0.00       0    45.0
  17    3:50   49.1    34    5.6   167      7.6   930.8    0.00       0    45.0
  17    4:00   48.7    34    4.5   182      6.6   931.1    0.00       0    44.9
  17    4:10   48.5    36    4.1   179      8.1   931.2    0.00       0    44.8
  17    4:20   48.4    36    2.9   152      5.4   931.3    0.00       0    44.8
  17    4:30   47.2    40    4.3    42      6.4   931.4    0.00       0    44.7
  17    4:40   46.5    39    5.5    42      6.4   931.4    0.00       0    44.7
  17    4:50   47.2    37    5.1    56      5.9   931.3    0.00       0    44.6
  17    5:00   47.7    37    4.7    80      7.2   931.0    0.00       0    44.5
  17    5:10   47.9    38    6.2   114      8.3   930.9    0.00       0    44.5
  17    5:20   48.2    38    5.4   127      6.9   931.0    0.00       0    44.4
  17    5:30   48.4    37    5.2   148      6.6   931.2    0.00       0    44.3
  17    5:40   48.1    38    4.5   147      6.2   931.3    0.00       0    44.2
  17    5:50   47.6    39    5.1   146      6.4   931.3    0.00       0    44.2
  17    6:00   47.1    38    5.0    82      6.4   931.2    0.00       0    44.2
  17    6:10   46.7    37    5.3    83      9.6   931.2    0.00       0    44.1
  17    6:20   47.2    38    9.2   107     12.0   931.0    0.00       0    44.0
  17    6:30   47.3    34    3.3    87      7.7   931.0    0.00       0    43.9
  17    6:40   48.3    34    5.4   112      9.3   930.9    0.00       0    43.9

Return to Highlands Peak graphs page.


Western Regional Climate Center,wrcc@dri.edu